Time;durP1;ratioP1;P1;durP2;ratioP2;P2;SDS_P1;SDS_P2;PMS_P1;PMS_P2;Temp;Humidity;BMP_temperature;BMP_pressure;BME280_temperature;BME280_humidity;BME280_pressure;Samples;Min_cycle;Max_cycle;Signal;HPM_P1;HPM_P2
2023/10/31 00:01:51;;;;;;;4.60;0.98;;;10.70;99.90;;;;;;5048161;28;20033;-72
2023/10/31 00:04:17;;;;;;;3.87;1.40;;;10.70;99.90;;;;;;5051748;28;20054;-72
2023/10/31 00:06:42;;;;;;;3.70;1.25;;;10.70;99.90;;;;;;5045696;28;20055;-73
2023/10/31 00:09:13;;;;;;;6.45;1.40;;;10.70;99.90;;;;;;5053354;28;20041;-72
2023/10/31 00:11:41;;;;;;;4.55;1.48;;;10.70;99.90;;;;;;5047952;28;20055;-72
2023/10/31 00:14:09;;;;;;;4.57;1.15;;;10.70;99.90;;;;;;5047380;28;21732;-73
2023/10/31 00:16:34;;;;;;;3.05;1.50;;;10.70;99.90;;;;;;5050086;28;20032;-73
2023/10/31 00:19:03;;;;;;;4.93;1.30;;;10.70;99.90;;;;;;5056277;28;20440;-72
2023/10/31 00:21:28;;;;;;;4.87;1.20;;;10.70;99.90;;;;;;5042885;28;20040;-74
2023/10/31 00:23:54;;;;;;;6.47;1.67;;;10.70;99.90;;;;;;5048265;28;20293;-72
2023/10/31 00:26:20;;;;;;;3.97;1.73;;;10.70;99.90;;;;;;5045763;28;20112;-72
2023/10/31 00:28:45;;;;;;;4.53;1.07;;;10.60;99.90;;;;;;5046668;28;20045;-72
2023/10/31 00:31:11;;;;;;;2.77;1.23;;;10.60;99.90;;;;;;5041861;28;20037;-72
2023/10/31 00:33:37;;;;;;;4.00;0.95;;;10.60;99.90;;;;;;5035058;28;20505;-74
2023/10/31 00:36:03;;;;;;;1.98;0.80;;;10.60;99.90;;;;;;5045761;28;20437;-72
2023/10/31 00:38:29;;;;;;;2.25;1.17;;;10.60;99.90;;;;;;5051600;28;20044;-72
2023/10/31 00:40:55;;;;;;;4.97;1.40;;;10.60;99.90;;;;;;5049517;28;20080;-72
2023/10/31 00:43:20;;;;;;;6.43;1.80;;;10.50;99.90;;;;;;5046072;28;20472;-73
2023/10/31 00:45:46;;;;;;;4.20;1.60;;;10.50;99.90;;;;;;5048883;28;20047;-71
2023/10/31 00:48:12;;;;;;;3.70;1.37;;;10.50;99.90;;;;;;5052364;28;20282;-72
2023/10/31 00:50:37;;;;;;;3.53;1.17;;;10.50;99.90;;;;;;5052983;28;20123;-72
2023/10/31 00:53:03;;;;;;;4.50;1.30;;;10.50;99.90;;;;;;5048885;28;20079;-72
2023/10/31 00:55:28;;;;;;;5.10;1.40;;;10.50;99.90;;;;;;5055313;28;20053;-72
2023/10/31 00:57:54;;;;;;;5.13;1.33;;;10.40;99.90;;;;;;5052507;28;20045;-72
2023/10/31 01:00:22;;;;;;;3.07;1.17;;;10.50;99.90;;;;;;5049526;28;20690;-72
2023/10/31 01:02:48;;;;;;;2.85;0.90;;;10.50;99.90;;;;;;5050856;28;20032;-71
2023/10/31 01:05:14;;;;;;;4.63;1.00;;;10.40;99.90;;;;;;5051807;28;20045;-73
2023/10/31 01:07:39;;;;;;;3.00;0.95;;;10.40;99.90;;;;;;5050484;28;20501;-72
2023/10/31 01:10:08;;;;;;;3.33;1.03;;;10.40;99.90;;;;;;5050909;28;20453;-72
2023/10/31 01:12:34;;;;;;;2.95;0.90;;;10.40;99.90;;;;;;5047650;28;20568;-71
2023/10/31 01:15:00;;;;;;;3.50;0.90;;;10.40;99.90;;;;;;5047904;28;20076;-72
2023/10/31 01:17:25;;;;;;;3.08;1.00;;;10.40;99.90;;;;;;5056222;28;20651;-71
2023/10/31 01:19:54;;;;;;;4.83;0.70;;;10.40;99.90;;;;;;5052104;28;20123;-72
2023/10/31 01:22:19;;;;;;;1.10;0.50;;;10.30;99.90;;;;;;5035315;28;20102;-72
2023/10/31 01:24:45;;;;;;;1.87;0.70;;;10.40;99.90;;;;;;5050528;28;20497;-73
2023/10/31 01:27:13;;;;;;;4.27;0.80;;;10.40;99.90;;;;;;5048077;28;20174;-71
2023/10/31 01:29:39;;;;;;;4.63;0.80;;;10.40;99.90;;;;;;5047862;28;20072;-72
2023/10/31 01:32:04;;;;;;;5.47;0.97;;;10.40;99.90;;;;;;5051333;28;20064;-74
2023/10/31 01:34:30;;;;;;;2.38;0.90;;;10.40;99.90;;;;;;5058042;28;20511;-72
2023/10/31 01:36:56;;;;;;;4.07;0.97;;;10.30;99.90;;;;;;5051605;28;20045;-73
2023/10/31 01:39:21;;;;;;;5.97;1.10;;;10.40;99.90;;;;;;5056797;28;20501;-72
2023/10/31 01:41:48;;;;;;;3.13;0.83;;;10.40;99.90;;;;;;5056799;28;20128;-72
2023/10/31 01:44:14;;;;;;;5.10;1.13;;;10.40;99.90;;;;;;5048362;28;20079;-71
2023/10/31 01:46:42;;;;;;;3.33;0.93;;;10.40;99.90;;;;;;5050733;28;20037;-71
2023/10/31 01:49:14;;;;;;;2.70;1.20;;;10.50;99.90;;;;;;5049245;28;20334;-71
2023/10/31 01:51:41;;;;;;;3.70;1.67;;;10.50;99.90;;;;;;5036895;28;20051;-72
2023/10/31 01:54:06;;;;;;;;;;;10.50;99.90;;;;;;5051274;28;20048;-73
2023/10/31 01:56:32;;;;;;;2.80;1.23;;;10.40;99.90;;;;;;5047615;28;19962;-71
2023/10/31 01:59:00;;;;;;;4.43;1.30;;;10.40;99.90;;;;;;5048526;28;20059;-71
2023/10/31 02:01:26;;;;;;;3.45;1.48;;;10.40;99.90;;;;;;5034491;28;20044;-72
2023/10/31 02:03:53;;;;;;;2.85;1.60;;;10.40;99.90;;;;;;5036024;28;20095;-72
2023/10/31 02:06:21;;;;;;;5.03;2.13;;;10.40;99.90;;;;;;5055080;28;20509;-72
2023/10/31 02:08:48;;;;;;;4.40;2.53;;;10.40;99.90;;;;;;5054079;28;20044;-75
2023/10/31 02:11:13;;;;;;;5.30;2.30;;;10.40;99.90;;;;;;5056641;28;20060;-73
2023/10/31 02:13:42;;;;;;;6.60;2.07;;;10.40;99.90;;;;;;5054100;28;20094;-72
2023/10/31 02:16:07;;;;;;;5.18;2.65;;;10.40;99.90;;;;;;5050274;28;20143;-72
2023/10/31 02:18:33;;;;;;;7.13;3.00;;;10.40;99.90;;;;;;5049465;28;20116;-71
2023/10/31 02:20:59;;;;;;;6.30;2.57;;;10.40;99.90;;;;;;5040520;28;20868;-71
2023/10/31 02:23:27;;;;;;;9.63;2.30;;;10.40;99.90;;;;;;5054180;28;20781;-71
2023/10/31 02:25:55;;;;;;;10.52;2.47;;;10.40;99.90;;;;;;5054615;28;20119;-72
2023/10/31 02:28:21;;;;;;;3.67;1.65;;;10.40;99.90;;;;;;5051747;28;20269;-71
2023/10/31 02:30:50;;;;;;;3.90;1.50;;;10.30;99.90;;;;;;5050871;28;20300;-73
2023/10/31 02:33:15;;;;;;;9.23;1.88;;;10.30;99.90;;;;;;5047216;28;20083;-72
2023/10/31 02:35:41;;;;;;;5.83;1.77;;;10.30;99.90;;;;;;5046838;28;20060;-71
2023/10/31 02:38:11;;;;;;;7.43;1.55;;;10.40;99.90;;;;;;5058130;28;20389;-72
2023/10/31 02:40:37;;;;;;;3.58;1.90;;;10.30;99.90;;;;;;5055421;28;20148;-72
2023/10/31 02:43:02;;;;;;;5.37;1.20;;;10.30;99.90;;;;;;5050325;28;20037;-72
2023/10/31 02:45:28;;;;;;;3.93;1.40;;;10.30;99.90;;;;;;5049902;28;20041;-72
2023/10/31 02:47:54;;;;;;;2.57;1.17;;;10.30;99.90;;;;;;5046141;28;20033;-73
2023/10/31 02:50:20;;;;;;;;;;;10.30;99.90;;;;;;5032525;28;20060;-72
2023/10/31 02:52:46;;;;;;;7.40;1.58;;;10.30;99.90;;;;;;5051235;28;20381;-72
2023/10/31 02:55:11;;;;;;;7.60;1.60;;;10.30;99.90;;;;;;5051612;28;20040;-74
2023/10/31 02:57:37;;;;;;;6.70;1.40;;;10.30;99.90;;;;;;5049021;28;20078;-72
2023/10/31 03:00:06;;;;;;;3.38;1.15;;;10.30;99.90;;;;;;5047474;28;20135;-73
2023/10/31 03:02:32;;;;;;;10.52;2.05;;;10.30;99.90;;;;;;5044708;28;20691;-72
2023/10/31 03:04:57;;;;;;;6.77;1.53;;;10.30;99.90;;;;;;5054127;28;20120;-72
2023/10/31 03:07:23;;;;;;;6.90;1.87;;;10.40;99.90;;;;;;5046011;28;20040;-72
2023/10/31 03:09:48;;;;;;;4.63;1.37;;;10.40;99.90;;;;;;5052797;28;20048;-71
2023/10/31 03:12:14;;;;;;;4.57;1.50;;;10.40;99.90;;;;;;5045039;28;20040;-72
2023/10/31 03:14:40;;;;;;;4.97;2.13;;;10.40;99.90;;;;;;5047569;28;20101;-72
2023/10/31 03:17:05;;;;;;;7.30;2.03;;;10.40;99.90;;;;;;5049209;28;20082;-72
2023/10/31 03:19:31;;;;;;;6.53;2.17;;;10.40;99.90;;;;;;5046283;28;20061;-72
2023/10/31 03:21:56;;;;;;;6.53;2.30;;;10.40;99.90;;;;;;5035838;28;20048;-72
2023/10/31 03:24:25;;;;;;;3.57;1.40;;;10.40;99.90;;;;;;5050384;28;20564;-73
2023/10/31 03:26:50;;;;;;;4.03;2.30;;;10.50;99.90;;;;;;5043632;28;20033;-72
2023/10/31 03:29:19;;;;;;;7.32;2.20;;;10.50;99.90;;;;;;5048931;28;20044;-71
2023/10/31 03:31:44;;;;;;;6.20;2.00;;;10.50;99.90;;;;;;5048453;28;20578;-72
2023/10/31 03:34:15;;;;;;;4.85;1.90;;;10.50;99.90;;;;;;5046909;28;20182;-71
2023/10/31 03:36:41;;;;;;;7.60;1.98;;;10.50;99.90;;;;;;5045164;28;20489;-72
2023/10/31 03:39:06;;;;;;;2.93;1.80;;;10.50;99.90;;;;;;5044278;28;20068;-73
2023/10/31 03:41:35;;;;;;;12.13;2.33;;;10.60;99.90;;;;;;5053027;28;20359;-71
2023/10/31 03:44:01;;;;;;;5.57;1.85;;;10.60;99.90;;;;;;5052760;28;20040;-72
2023/10/31 03:46:29;;;;;;;8.23;1.52;;;10.50;99.90;;;;;;5051313;28;20044;-72
2023/10/31 03:48:55;;;;;;;6.10;1.17;;;10.60;99.90;;;;;;5046955;28;20597;-70
2023/10/31 03:51:20;;;;;;;6.27;1.30;;;10.60;99.90;;;;;;5044849;28;20386;-72
2023/10/31 03:53:46;;;;;;;5.17;1.83;;;10.60;99.90;;;;;;5022234;28;20043;-71
2023/10/31 03:56:11;;;;;;;6.00;1.33;;;10.60;99.90;;;;;;5039509;28;20509;-71
2023/10/31 03:58:42;;;;;;;2.83;0.80;;;10.60;99.90;;;;;;5036295;28;20105;-71
2023/10/31 04:01:07;;;;;;;4.55;1.08;;;10.60;99.90;;;;;;5041952;28;20147;-71
2023/10/31 04:03:33;;;;;;;3.77;1.30;;;10.60;99.90;;;;;;5033614;28;20136;-72
2023/10/31 04:05:59;;;;;;;4.30;1.40;;;10.60;99.90;;;;;;5046185;28;20032;-71
2023/10/31 04:08:27;;;;;;;4.50;1.33;;;10.50;99.90;;;;;;5029206;28;20044;-72
2023/10/31 04:10:53;;;;;;;4.93;1.08;;;10.60;99.90;;;;;;5046535;28;20555;-71
2023/10/31 04:13:21;;;;;;;1.50;0.60;;;10.50;99.90;;;;;;5048695;28;20132;-72
2023/10/31 04:15:47;;;;;;;3.80;0.70;;;10.60;99.90;;;;;;5052298;28;20454;-73
2023/10/31 04:18:12;;;;;;;1.90;0.50;;;10.50;99.90;;;;;;5048046;28;20067;-71
2023/10/31 04:20:38;;;;;;;1.33;0.52;;;10.60;99.90;;;;;;5030251;28;20230;-72
2023/10/31 04:23:05;;;;;;;2.38;0.65;;;10.50;99.90;;;;;;5023814;28;20044;-71
2023/10/31 04:25:31;;;;;;;2.33;0.80;;;10.50;99.90;;;;;;5045861;28;20048;-72
2023/10/31 04:27:56;;;;;;;1.03;0.33;;;10.50;99.90;;;;;;5048348;28;20045;-72
2023/10/31 04:30:22;;;;;;;1.37;0.87;;;10.50;99.90;;;;;;5044933;28;20383;-71
2023/10/31 04:32:47;;;;;;;2.70;0.73;;;10.40;99.90;;;;;;5043668;28;20033;-72
2023/10/31 04:35:13;;;;;;;0.97;0.30;;;10.50;99.90;;;;;;5047526;28;20115;-71
2023/10/31 04:37:41;;;;;;;2.67;0.50;;;10.40;99.90;;;;;;5050747;28;20037;-71
2023/10/31 04:40:10;;;;;;;2.30;0.50;;;10.40;99.90;;;;;;5051208;28;20547;-71
2023/10/31 04:42:39;;;;;;;3.78;0.30;;;10.40;99.90;;;;;;5046474;28;20069;-71
2023/10/31 04:45:08;;;;;;;2.70;0.30;;;10.40;99.90;;;;;;5044829;28;20049;-72
2023/10/31 04:47:34;;;;;;;4.15;0.32;;;10.40;99.90;;;;;;5048631;28;20045;-71
2023/10/31 04:49:59;;;;;;;2.93;0.50;;;10.40;99.90;;;;;;5048920;28;20555;-72
2023/10/31 04:52:31;;;;;;;2.90;0.30;;;10.40;99.90;;;;;;5045864;28;20080;-71
2023/10/31 04:54:59;;;;;;;1.58;0.50;;;10.30;99.90;;;;;;5049438;28;20049;-71
2023/10/31 04:57:24;;;;;;;1.92;0.28;;;10.30;99.90;;;;;;5050061;28;20265;-72
2023/10/31 04:59:51;;;;;;;1.77;0.40;;;10.30;99.90;;;;;;5045817;28;20040;-73
2023/10/31 05:02:25;;;;;;;1.45;0.65;;;10.30;99.90;;;;;;5048644;28;20123;-71
2023/10/31 05:04:51;;;;;;;2.50;0.45;;;10.30;99.90;;;;;;5044357;28;21630;-72
2023/10/31 05:07:22;;;;;;;3.10;0.30;;;10.30;99.90;;;;;;5054431;28;20037;-72
2023/10/31 05:09:47;;;;;;;2.22;0.30;;;10.30;99.90;;;;;;5047399;28;20128;-73
2023/10/31 05:12:13;;;;;;;1.20;0.50;;;10.30;99.90;;;;;;5036591;28;20479;-73
2023/10/31 05:14:40;;;;;;;1.23;0.27;;;10.30;99.90;;;;;;5047920;28;20090;-72
2023/10/31 05:17:08;;;;;;;1.33;0.50;;;10.30;99.90;;;;;;5054702;28;20033;-72
2023/10/31 05:19:36;;;;;;;4.45;0.47;;;10.30;99.90;;;;;;5048077;28;20064;-72
2023/10/31 05:22:03;;;;;;;1.55;0.52;;;10.30;99.90;;;;;;5042606;28;20075;-73
2023/10/31 05:24:29;;;;;;;2.95;0.63;;;10.30;99.90;;;;;;5046575;28;20056;-71
2023/10/31 05:26:55;;;;;;;1.70;0.60;;;10.40;99.90;;;;;;5035106;28;20112;-73
2023/10/31 05:29:20;;;;;;;0.87;0.40;;;10.40;99.90;;;;;;5045397;28;20409;-74
2023/10/31 05:31:47;;;;;;;4.13;0.73;;;10.40;99.90;;;;;;5051326;28;20044;-74
2023/10/31 05:34:12;;;;;;;;;;;10.40;99.90;;;;;;5045678;28;20041;-73
2023/10/31 05:36:38;;;;;;;2.17;0.60;;;10.40;99.90;;;;;;5046569;28;19917;-71
2023/10/31 05:39:04;;;;;;;4.13;0.63;;;10.40;99.90;;;;;;5038120;28;20079;-72
2023/10/31 05:41:29;;;;;;;1.27;0.63;;;10.40;99.90;;;;;;5053834;28;20052;-72
2023/10/31 05:43:55;;;;;;;2.50;0.57;;;10.40;99.90;;;;;;5053633;28;20179;-71
2023/10/31 05:46:21;;;;;;;5.23;0.80;;;10.40;99.90;;;;;;5058944;28;20037;-73
2023/10/31 05:48:47;;;;;;;1.07;0.40;;;10.40;99.90;;;;;;5046101;28;21023;-71
2023/10/31 05:51:17;;;;;;;1.73;0.85;;;10.40;99.90;;;;;;5052379;28;20377;-73
2023/10/31 05:53:47;;;;;;;1.95;0.70;;;10.40;99.90;;;;;;5053853;28;20394;-71
2023/10/31 05:56:14;;;;;;;1.52;0.60;;;10.40;99.90;;;;;;5053733;28;20625;-73
2023/10/31 05:58:41;;;;;;;1.88;0.50;;;10.50;99.90;;;;;;5049197;28;20048;-72
2023/10/31 06:01:07;;;;;;;1.70;0.60;;;10.40;99.90;;;;;;5045982;28;20040;-71
2023/10/31 06:03:33;;;;;;;;;;;10.50;99.90;;;;;;5047333;28;20216;-71
2023/10/31 06:05:59;;;;;;;1.83;0.80;;;10.50;99.90;;;;;;5046700;28;20061;-71
2023/10/31 06:08:30;;;;;;;1.75;0.90;;;10.50;99.90;;;;;;5046633;28;20255;-71
2023/10/31 06:10:56;;;;;;;2.20;0.80;;;10.50;99.90;;;;;;5048893;28;20059;-71
2023/10/31 06:13:23;;;;;;;2.90;0.70;;;10.50;99.90;;;;;;5053853;28;20520;-71
2023/10/31 06:15:48;;;;;;;4.82;0.88;;;10.50;99.90;;;;;;5047205;28;20088;-72
2023/10/31 06:18:14;;;;;;;2.43;0.90;;;10.50;99.90;;;;;;5047054;28;20064;-71
2023/10/31 06:20:40;;;;;;;3.60;1.30;;;10.50;99.90;;;;;;5048071;28;20600;-71
2023/10/31 06:23:10;;;;;;;2.07;0.97;;;10.50;99.90;;;;;;5041517;28;20344;-72
2023/10/31 06:25:39;;;;;;;3.45;1.08;;;10.50;99.90;;;;;;5055603;28;20451;-71
2023/10/31 06:28:04;;;;;;;3.13;0.90;;;10.50;99.90;;;;;;5051043;28;20052;-72
2023/10/31 06:30:39;;;;;;;1.97;0.70;;;10.50;99.90;;;;;;5043839;28;20056;-70
2023/10/31 06:33:04;;;;;;;5.63;1.60;;;10.50;99.90;;;;;;5049919;28;20074;-72
2023/10/31 06:35:32;;;;;;;3.53;1.00;;;10.50;99.90;;;;;;5048634;28;20044;-71
2023/10/31 06:37:58;;;;;;;6.68;1.17;;;10.50;99.90;;;;;;5066185;28;20454;-70
2023/10/31 06:40:29;;;;;;;2.57;1.00;;;10.50;99.90;;;;;;5051032;28;20052;-72
2023/10/31 06:42:55;;;;;;;6.38;1.00;;;10.60;99.90;;;;;;5047290;28;20094;-71
2023/10/31 06:45:22;;;;;;;2.43;0.97;;;10.60;99.90;;;;;;5046268;28;20546;-71
2023/10/31 06:47:48;;;;;;;1.80;0.70;;;10.50;99.90;;;;;;5049711;28;20056;-78
2023/10/31 06:50:14;;;;;;;2.10;1.10;;;10.50;99.90;;;;;;5049487;28;20037;-74
2023/10/31 06:52:42;;;;;;;3.33;1.20;;;10.50;99.90;;;;;;5058932;28;20356;-72
2023/10/31 06:55:08;;;;;;;3.20;1.15;;;10.50;99.90;;;;;;5051490;28;20048;-73
2023/10/31 06:57:34;;;;;;;4.22;0.85;;;10.50;99.90;;;;;;5046133;28;20417;-75
2023/10/31 06:59:59;;;;;;;2.67;1.00;;;10.60;99.90;;;;;;5054707;28;20209;-75
2023/10/31 07:02:25;;;;;;;2.47;1.10;;;10.60;99.90;;;;;;5051219;28;20684;-74
2023/10/31 07:04:51;;;;;;;2.20;0.75;;;10.60;99.90;;;;;;5048000;28;20040;-74
2023/10/31 07:07:19;;;;;;;4.65;1.15;;;10.60;99.90;;;;;;5060198;28;20551;-77
2023/10/31 07:09:48;;;;;;;2.33;0.70;;;10.50;99.90;;;;;;5052288;28;20303;-72
2023/10/31 07:12:17;;;;;;;4.28;0.75;;;10.60;99.90;;;;;;5049776;28;20463;-72
2023/10/31 07:14:43;;;;;;;4.85;0.70;;;10.60;99.90;;;;;;5050720;28;20051;-72
2023/10/31 07:17:09;;;;;;;2.53;0.97;;;10.60;99.90;;;;;;5043142;28;20045;-74
2023/10/31 07:19:34;;;;;;;5.27;0.80;;;10.60;99.90;;;;;;5048045;28;20052;-75
2023/10/31 07:22:00;;;;;;;5.17;1.00;;;10.60;99.90;;;;;;5038983;28;20416;-72
2023/10/31 07:24:29;;;;;;;4.90;0.70;;;10.70;99.90;;;;;;5049834;28;20053;-72
2023/10/31 07:26:57;;;;;;;4.15;0.88;;;10.70;99.90;;;;;;5053981;28;20057;-74
2023/10/31 07:29:23;;;;;;;3.63;0.65;;;10.70;99.90;;;;;;5034702;28;20119;-72
2023/10/31 07:31:49;;;;;;;3.30;0.80;;;10.70;99.90;;;;;;5051667;28;20048;-75
2023/10/31 07:34:17;;;;;;;5.10;0.93;;;10.70;99.90;;;;;;5049522;28;20065;-72
2023/10/31 07:36:43;;;;;;;1.67;0.43;;;10.70;99.90;;;;;;5050722;28;20045;-72
2023/10/31 07:39:09;;;;;;;3.60;0.65;;;10.70;99.90;;;;;;5042426;28;20059;-72
2023/10/31 07:41:35;;;;;;;4.32;0.70;;;10.80;99.90;;;;;;5055394;28;20171;-73
2023/10/31 07:44:00;;;;;;;1.67;0.70;;;10.80;99.90;;;;;;5043014;28;20540;-72
2023/10/31 07:46:26;;;;;;;3.10;0.60;;;10.80;99.90;;;;;;5046656;28;20044;-74
2023/10/31 07:48:51;;;;;;;3.20;0.77;;;10.80;99.90;;;;;;5052933;28;20043;-72
2023/10/31 07:51:17;;;;;;;1.97;0.53;;;10.80;99.90;;;;;;5049613;28;20054;-72
2023/10/31 07:53:43;;;;;;;0.83;0.47;;;10.90;99.90;;;;;;5052946;28;20307;-72
2023/10/31 07:56:16;;;;;;;2.27;0.67;;;10.90;99.90;;;;;;5051011;28;20076;-72
2023/10/31 07:58:41;;;;;;;1.10;0.30;;;10.90;99.90;;;;;;5029838;28;20077;-73
2023/10/31 08:01:10;;;;;;;2.60;0.60;;;10.90;99.90;;;;;;5052373;28;20087;-72
2023/10/31 08:03:39;;;;;;;2.20;0.60;;;10.90;99.90;;;;;;5056881;28;20052;-72
2023/10/31 08:06:07;;;;;;;2.33;0.50;;;10.90;99.90;;;;;;5048849;28;20396;-72
2023/10/31 08:08:33;;;;;;;1.45;0.65;;;10.90;99.90;;;;;;5054032;28;20062;-72
2023/10/31 08:10:59;;;;;;;1.90;0.60;;;10.90;99.90;;;;;;5054353;28;20049;-75
2023/10/31 08:13:25;;;;;;;2.47;0.52;;;10.90;99.90;;;;;;5055669;28;20577;-72
2023/10/31 08:15:50;;;;;;;1.07;0.33;;;10.90;99.90;;;;;;5044673;28;20041;-72
2023/10/31 08:18:16;;;;;;;1.07;0.30;;;10.90;99.90;;;;;;5056420;28;20451;-72
2023/10/31 08:20:43;;;;;;;2.10;0.47;;;11.00;99.90;;;;;;5042610;28;20087;-75
2023/10/31 08:23:09;;;;;;;2.83;0.57;;;11.00;99.90;;;;;;5043074;28;20874;-72
2023/10/31 08:25:34;;;;;;;1.85;0.65;;;11.00;99.90;;;;;;5047780;28;20060;-72
2023/10/31 08:28:00;;;;;;;2.07;0.30;;;11.00;99.90;;;;;;5051241;28;20101;-73
2023/10/31 08:30:25;;;;;;;3.17;0.50;;;11.00;99.90;;;;;;5053331;28;20438;-74
2023/10/31 08:32:51;;;;;;;2.77;0.40;;;11.00;99.90;;;;;;5049045;28;20041;-73
2023/10/31 08:35:17;;;;;;;2.27;0.30;;;11.00;99.90;;;;;;5049415;28;20493;-73
2023/10/31 08:37:42;;;;;;;2.17;0.40;;;11.00;99.90;;;;;;5044068;28;20044;-73
2023/10/31 08:40:08;;;;;;;0.77;0.30;;;11.00;99.90;;;;;;5055104;28;20116;-73
2023/10/31 08:42:34;;;;;;;3.50;0.43;;;11.00;99.90;;;;;;5057256;28;20142;-73
2023/10/31 08:45:00;;;;;;;0.53;0.20;;;11.00;99.90;;;;;;5052494;28;20496;-74
2023/10/31 08:47:25;;;;;;;0.63;0.10;;;11.00;99.90;;;;;;5043776;28;20041;-72
2023/10/31 08:49:51;;;;;;;2.40;0.67;;;11.10;99.90;;;;;;5040633;28;20036;-73
2023/10/31 08:52:17;;;;;;;4.07;1.00;;;11.10;99.90;;;;;;5043924;28;20372;-74
2023/10/31 08:54:43;;;;;;;1.40;0.20;;;11.10;99.90;;;;;;5043976;28;20387;-72
2023/10/31 08:57:09;;;;;;;4.30;0.50;;;11.10;99.90;;;;;;5052306;28;20059;-73
2023/10/31 08:59:35;;;;;;;2.70;0.57;;;11.10;99.90;;;;;;5050006;28;20826;-73
2023/10/31 09:02:01;;;;;;;6.50;0.70;;;11.10;99.90;;;;;;5048441;28;20521;-74
2023/10/31 09:04:27;;;;;;;5.32;0.65;;;11.20;99.90;;;;;;5051449;28;20041;-74
2023/10/31 09:06:53;;;;;;;9.50;1.13;;;11.20;99.90;;;;;;5043226;28;20555;-73
2023/10/31 09:09:19;;;;;;;4.93;1.25;;;11.20;99.90;;;;;;5048081;28;20286;-73
2023/10/31 09:11:44;;;;;;;2.43;0.63;;;11.30;99.90;;;;;;5053548;28;20396;-74
2023/10/31 09:14:10;;;;;;;2.90;0.67;;;11.30;99.90;;;;;;5043341;28;20036;-73
2023/10/31 09:16:35;;;;;;;1.63;0.50;;;11.30;99.90;;;;;;5057176;28;20041;-73
2023/10/31 09:19:01;;;;;;;1.57;0.47;;;11.30;99.90;;;;;;5054600;28;20037;-74
2023/10/31 09:21:26;;;;;;;1.57;0.30;;;11.40;99.90;;;;;;5043989;28;20123;-74
2023/10/31 09:23:52;;;;;;;3.57;0.40;;;11.40;99.90;;;;;;5052871;28;20041;-73
2023/10/31 09:26:18;;;;;;;4.90;0.50;;;11.30;99.90;;;;;;5055817;28;20036;-73
2023/10/31 09:28:49;;;;;;;3.22;0.40;;;11.40;99.90;;;;;;5059957;28;20115;-73
2023/10/31 09:31:17;;;;;;;1.80;0.60;;;11.40;99.90;;;;;;5056695;28;20040;-73
2023/10/31 09:33:43;;;;;;;2.17;0.70;;;11.40;99.90;;;;;;5062477;28;20147;-73
2023/10/31 09:36:09;;;;;;;1.63;0.35;;;11.40;99.90;;;;;;5050901;28;20190;-73
2023/10/31 09:38:35;;;;;;;4.68;0.50;;;11.40;99.90;;;;;;5048505;28;20617;-72
2023/10/31 09:41:00;;;;;;;4.17;1.00;;;11.40;99.90;;;;;;5056878;28;20120;-74
2023/10/31 09:43:26;;;;;;;3.50;0.60;;;11.40;99.90;;;;;;5048116;28;20147;-74
2023/10/31 09:45:52;;;;;;;1.90;0.50;;;11.40;99.90;;;;;;5050226;28;20124;-74
2023/10/31 09:48:22;;;;;;;8.98;0.73;;;11.40;99.90;;;;;;5031311;28;20520;-75
2023/10/31 09:50:47;;;;;;;3.92;0.77;;;11.40;99.90;;;;;;5055212;28;20110;-72
2023/10/31 09:53:16;;;;;;;4.93;0.90;;;11.50;99.90;;;;;;5049918;28;20405;-72
2023/10/31 09:55:43;;;;;;;5.05;0.60;;;11.50;99.90;;;;;;5051514;28;20115;-73
2023/10/31 09:58:08;;;;;;;;;;;11.50;99.90;;;;;;5052915;28;20120;-75
2023/10/31 10:00:36;;;;;;;3.22;0.52;;;11.50;99.90;;;;;;5057314;28;20003;-73
2023/10/31 10:03:03;;;;;;;5.97;0.63;;;11.60;99.90;;;;;;5041358;28;20037;-73
2023/10/31 10:05:31;;;;;;;5.85;0.55;;;11.60;99.90;;;;;;5046279;28;20040;-74
2023/10/31 10:07:57;;;;;;;3.80;0.60;;;11.60;99.90;;;;;;5051810;28;20076;-73
2023/10/31 10:10:24;;;;;;;4.85;0.35;;;11.60;99.90;;;;;;5050627;28;20071;-72
2023/10/31 10:12:51;;;;;;;1.13;0.30;;;11.60;99.90;;;;;;5053479;28;20096;-73
2023/10/31 10:15:17;;;;;;;3.55;0.50;;;11.60;99.90;;;;;;5048010;28;20099;-73
2023/10/31 10:17:50;;;;;;;2.97;0.85;;;11.60;99.90;;;;;;5057197;28;20497;-73
2023/10/31 10:20:15;;;;;;;5.95;1.00;;;11.50;99.90;;;;;;5057219;28;20481;-73
2023/10/31 10:22:42;;;;;;;2.77;0.50;;;11.50;99.90;;;;;;5047806;28;20073;-73
2023/10/31 10:25:15;;;;;;;2.40;0.43;;;11.50;99.90;;;;;;5046928;28;20049;-72
2023/10/31 10:27:41;;;;;;;3.85;0.55;;;11.50;99.90;;;;;;5055475;28;20040;-74
2023/10/31 10:30:08;;;;;;;2.70;0.50;;;11.50;99.90;;;;;;5058493;28;20071;-72
2023/10/31 10:32:35;;;;;;;1.95;0.65;;;11.40;99.90;;;;;;5050354;28;20106;-72
2023/10/31 10:35:00;;;;;;;1.30;0.38;;;11.50;99.90;;;;;;5055561;28;20041;-73
2023/10/31 10:37:27;;;;;;;2.97;0.20;;;11.50;99.90;;;;;;5030762;28;20041;-73
2023/10/31 10:39:56;;;;;;;2.22;0.45;;;11.50;99.90;;;;;;5056910;28;20100;-74
2023/10/31 10:42:46;;;;;;;3.00;0.60;;;11.40;99.90;;;;;;5053577;28;20048;-75
2023/10/31 10:45:17;;;;;;;2.70;0.43;;;11.50;99.90;;;;;;5041843;28;20064;-72
2023/10/31 10:47:49;;;;;;;2.22;0.43;;;11.40;99.90;;;;;;5039177;28;20370;-73
2023/10/31 10:50:17;;;;;;;2.38;0.47;;;11.50;99.90;;;;;;5054810;28;20041;-74
2023/10/31 10:52:54;;;;;;;6.65;1.50;;;11.50;99.90;;;;;;5035710;28;20037;-73
2023/10/31 10:55:23;;;;;;;1.63;0.50;;;11.40;99.90;;;;;;5050109;28;20489;-73
2023/10/31 10:58:08;;;;;;;2.50;0.50;;;11.50;99.90;;;;;;5053372;28;20057;-72
2023/10/31 11:00:34;;;;;;;3.08;0.65;;;11.50;99.90;;;;;;5046796;28;20456;-72
2023/10/31 11:03:01;;;;;;;5.47;0.98;;;11.50;99.90;;;;;;5052332;28;20550;-72
2023/10/31 11:05:27;;;;;;;2.70;0.65;;;11.50;99.90;;;;;;5045697;28;20045;-73
2023/10/31 11:07:55;;;;;;;4.55;0.80;;;11.50;99.90;;;;;;5052403;28;20040;-72
2023/10/31 11:10:21;;;;;;;2.70;0.65;;;11.50;99.90;;;;;;5044136;28;20291;-73
2023/10/31 11:12:47;;;;;;;2.20;0.55;;;11.60;99.90;;;;;;5050816;28;20481;-71
2023/10/31 11:15:15;;;;;;;3.20;0.50;;;11.60;99.90;;;;;;5057716;28;20048;-71
2023/10/31 11:17:44;;;;;;;3.40;0.55;;;11.60;99.90;;;;;;5050276;28;20048;-72
2023/10/31 11:20:14;;;;;;;1.75;0.52;;;11.60;99.90;;;;;;5043348;28;20519;-72
2023/10/31 11:22:49;;;;;;;5.78;0.98;;;11.70;99.90;;;;;;5050262;28;20552;-72
2023/10/31 11:25:19;;;;;;;6.75;0.52;;;11.80;99.90;;;;;;5047816;28;20502;-72
2023/10/31 11:27:45;;;;;;;4.05;0.50;;;11.80;99.90;;;;;;5048458;28;20072;-72
2023/10/31 11:30:30;;;;;;;4.38;0.70;;;11.80;99.90;;;;;;5057754;28;20065;-72
2023/10/31 11:32:59;;;;;;;3.35;0.45;;;11.80;99.90;;;;;;5056053;28;20131;-71
2023/10/31 11:35:25;;;;;;;4.57;0.60;;;11.80;99.90;;;;;;5052175;28;20029;-71
2023/10/31 11:38:08;;;;;;;3.33;0.40;;;11.80;99.90;;;;;;5057606;28;20056;-71
2023/10/31 11:40:35;;;;;;;3.33;0.65;;;11.70;99.90;;;;;;5049434;28;20068;-72
2023/10/31 11:43:06;;;;;;;4.63;0.60;;;11.70;99.90;;;;;;5040080;28;20598;-74
2023/10/31 11:45:44;;;;;;;3.47;0.60;;;11.60;99.90;;;;;;5044352;28;20047;-71
2023/10/31 11:48:10;;;;;;;3.60;0.70;;;11.60;99.90;;;;;;5045568;28;20224;-72
2023/10/31 11:50:37;;;;;;;2.40;0.80;;;11.60;99.90;;;;;;5056234;28;20047;-71
2023/10/31 11:53:16;;;;;;;3.40;0.50;;;11.60;99.90;;;;;;5042463;28;20045;-71
2023/10/31 11:55:49;;;;;;;4.55;0.50;;;11.60;99.90;;;;;;5054164;28;20041;-73
2023/10/31 11:58:19;;;;;;;5.13;0.50;;;11.60;99.90;;;;;;5054316;28;20052;-71
2023/10/31 12:00:46;;;;;;;4.30;0.47;;;11.60;99.90;;;;;;5054840;28;20043;-71
2023/10/31 12:03:13;;;;;;;1.42;0.32;;;11.60;99.90;;;;;;5052114;28;20040;-72
2023/10/31 12:05:38;;;;;;;2.60;0.52;;;11.50;99.90;;;;;;5051590;28;20045;-71
2023/10/31 12:08:04;;;;;;;4.33;0.70;;;11.60;99.90;;;;;;5027841;28;20432;-73
2023/10/31 12:10:30;;;;;;;1.88;0.50;;;11.50;99.90;;;;;;5054698;28;20285;-71
2023/10/31 12:12:57;;;;;;;;;;;11.50;99.90;;;;;;5052824;28;20053;-71
2023/10/31 12:15:22;;;;;;;5.00;0.60;;;11.40;99.90;;;;;;5043845;28;19963;-73
2023/10/31 12:17:49;;;;;;;1.73;0.40;;;11.50;99.90;;;;;;5055908;28;20065;-71
2023/10/31 12:20:16;;;;;;;3.92;0.77;;;11.40;99.90;;;;;;5054119;28;20036;-72
2023/10/31 12:22:41;;;;;;;2.85;0.73;;;11.40;99.90;;;;;;5050908;28;20400;-71
2023/10/31 12:25:08;;;;;;;5.22;0.65;;;11.40;99.90;;;;;;5054260;28;20351;-71
2023/10/31 12:27:49;;;;;;;3.05;0.70;;;11.40;99.90;;;;;;5054067;28;20044;-71
2023/10/31 12:30:17;;;;;;;3.13;1.10;;;11.40;99.90;;;;;;5038295;28;20490;-71
2023/10/31 12:32:44;;;;;;;2.08;0.55;;;11.50;99.90;;;;;;5031982;28;20048;-71
2023/10/31 12:35:19;;;;;;;5.68;0.80;;;11.50;99.90;;;;;;5048092;28;20509;-72
2023/10/31 12:37:46;;;;;;;5.45;0.77;;;11.60;99.90;;;;;;5048863;28;20514;-72
2023/10/31 12:40:19;;;;;;;4.25;0.50;;;11.70;99.90;;;;;;5048800;28;20416;-71
2023/10/31 12:42:46;;;;;;;3.15;0.93;;;11.80;99.90;;;;;;5047245;28;20116;-71
2023/10/31 12:45:12;;;;;;;3.33;0.70;;;11.80;99.90;;;;;;5053432;28;20177;-71
2023/10/31 12:47:38;;;;;;;2.70;0.52;;;11.90;99.90;;;;;;5060495;28;20116;-71